Time;durP1;ratioP1;P1;durP2;ratioP2;P2;SDS_P1;SDS_P2;PMS_P1;PMS_P2;Temp;Humidity;BMP_temperature;BMP_pressure;BME280_temperature;BME280_humidity;BME280_pressure;Samples;Min_cycle;Max_cycle;Signal;HPM_P1;HPM_P2
2021/12/06 14:20:11;;;;;;;8.70;7.80;;;14.10;78.30;;;;;;2299780;62;30187;-74
2021/12/06 14:22:38;;;;;;;9.63;7.32;;;14.10;79.40;;;;;;2291133;62;30218;-75
2021/12/06 14:25:05;;;;;;;9.20;7.47;;;14.20;80.50;;;;;;2277144;62;30080;-75
2021/12/06 14:27:36;;;;;;;8.45;6.95;;;14.30;81.90;;;;;;2277094;62;30518;-75
2021/12/06 14:30:05;;;;;;;8.27;7.10;;;14.50;82.90;;;;;;2289281;62;30185;-74
2021/12/06 14:32:31;;;;;;;8.68;6.60;;;14.60;83.50;;;;;;2283043;62;30024;-75
2021/12/06 14:35:00;;;;;;;7.80;6.90;;;14.70;83.80;;;;;;2275745;62;30197;-74
2021/12/06 14:37:28;;;;;;;7.20;6.22;;;14.80;83.90;;;;;;2282909;62;30856;-74
2021/12/06 14:39:57;;;;;;;7.70;6.75;;;14.80;83.70;;;;;;2282963;62;30471;-81
2021/12/06 14:42:25;;;;;;;7.13;6.43;;;14.90;83.40;;;;;;2283087;62;30513;-79
2021/12/06 14:44:57;;;;;;;7.32;6.63;;;14.90;82.90;;;;;;2268662;62;30681;-79
2021/12/06 14:47:32;;;;;;;;;;;15.00;82.50;;;;;;2276050;62;30013;-79
2021/12/06 14:49:59;;;;;;;7.57;6.78;;;15.00;77.90;;;;;;2283300;62;30228;-79
2021/12/06 14:52:32;;;;;;;7.28;6.57;;;15.00;81.80;;;;;;2282690;62;29949;-78
2021/12/06 14:57:48;;;;;;;6.88;6.18;;;15.10;79.00;;;;;;2275168;62;30784;-78
2021/12/06 15:00:17;;;;;;;7.32;6.35;;;15.10;80.50;;;;;;2275448;62;30210;-79
2021/12/06 15:02:51;;;;;;;7.75;7.00;;;15.10;80.10;;;;;;2282771;62;30007;-78
2021/12/06 15:05:24;;;;;;;8.00;6.63;;;15.10;79.80;;;;;;2281691;62;29989;-78
2021/12/06 15:07:55;;;;;;;7.15;6.45;;;15.10;79.50;;;;;;2276713;62;30111;-79
2021/12/06 15:10:21;;;;;;;7.17;6.47;;;15.10;79.20;;;;;;2281608;62;30685;-78
2021/12/06 15:12:49;;;;;;;7.65;6.85;;;15.20;79.00;;;;;;2282045;62;30160;-78
2021/12/06 15:15:39;;;;;;;8.30;7.32;;;15.20;78.80;;;;;;2281061;62;30601;-77
2021/12/06 15:18:06;;;;;;;7.95;7.20;;;15.20;78.30;;;;;;2276670;62;30301;-78
2021/12/06 15:20:36;;;;;;;7.82;7.03;;;15.20;78.30;;;;;;2281378;62;30002;-77
2021/12/06 15:23:06;;;;;;;8.57;6.93;;;15.20;78.00;;;;;;2289341;62;30955;-78
2021/12/06 15:25:32;;;;;;;7.88;7.07;;;15.20;77.90;;;;;;2290040;62;30039;-77
2021/12/06 15:27:58;;;;;;;8.07;7.18;;;15.30;77.80;;;;;;2289264;62;30830;-77
2021/12/06 15:30:29;;;;;;;7.72;6.93;;;15.30;77.60;;;;;;2286865;62;30503;-77
2021/12/06 15:32:56;;;;;;;8.05;7.25;;;15.30;78.20;;;;;;2284228;62;30101;-80
2021/12/06 15:35:28;;;;;;;9.70;7.32;;;15.30;77.50;;;;;;2284465;62;30187;-77
2021/12/06 15:37:54;;;;;;;9.35;7.47;;;15.30;77.30;;;;;;2270462;62;30012;-77
2021/12/06 15:40:20;;;;;;;8.20;7.40;;;15.30;77.20;;;;;;2276667;62;30303;-76
2021/12/06 15:42:47;;;;;;;8.50;7.70;;;15.20;77.00;;;;;;2284252;62;30026;-76
2021/12/06 15:45:13;;;;;;;10.20;8.20;;;15.20;77.00;;;;;;2276738;62;30212;-77
2021/12/06 15:47:46;;;;;;;9.32;8.13;;;15.20;77.00;;;;;;2283706;62;30207;-76
2021/12/06 15:50:15;;;;;;;9.20;8.30;;;15.10;77.00;;;;;;2270689;62;30448;-76
2021/12/06 15:52:46;;;;;;;8.90;8.00;;;15.10;77.00;;;;;;2284145;62;30812;-76
2021/12/06 15:55:16;;;;;;;9.10;8.20;;;15.10;76.90;;;;;;2276688;62;29976;-76
2021/12/06 15:57:42;;;;;;;8.73;7.78;;;15.00;77.10;;;;;;2276634;62;30938;-76
2021/12/06 16:00:16;;;;;;;8.38;7.57;;;15.10;77.30;;;;;;2270038;62;30189;-76
2021/12/06 16:02:46;;;;;;;9.05;8.18;;;15.10;77.10;;;;;;2283854;62;30131;-76
2021/12/06 16:05:22;;;;;;;8.15;7.30;;;15.20;77.00;;;;;;2270079;62;30379;-76
2021/12/06 16:07:56;;;;;;;7.18;6.47;;;15.30;76.90;;;;;;2270155;62;30726;-77
2021/12/06 16:10:22;;;;;;;7.13;6.47;;;15.50;76.80;;;;;;2270039;62;30205;-78
2021/12/06 16:12:51;;;;;;;7.03;6.43;;;15.60;76.80;;;;;;2276638;62;30165;-77
2021/12/06 16:15:18;;;;;;;7.20;6.50;;;15.60;76.50;;;;;;2283830;62;30255;-77
2021/12/06 16:17:44;;;;;;;6.93;6.22;;;15.70;76.50;;;;;;2283656;62;30867;-76
2021/12/06 16:20:10;;;;;;;7.00;6.30;;;15.80;76.40;;;;;;2283942;62;30188;-77
2021/12/06 16:22:37;;;;;;;6.65;6.05;;;15.80;76.10;;;;;;2276468;62;30521;-78
2021/12/06 16:25:05;;;;;;;6.72;6.13;;;15.90;76.00;;;;;;2283269;62;30427;-77
2021/12/06 16:27:32;;;;;;;6.47;5.88;;;15.90;75.90;;;;;;2276230;62;31075;-76
2021/12/06 16:29:58;;;;;;;6.15;5.53;;;16.10;75.80;;;;;;2283231;62;30334;-76
2021/12/06 16:32:27;;;;;;;6.53;5.80;;;16.20;75.60;;;;;;2269595;62;30862;-76
2021/12/06 16:34:53;;;;;;;6.28;5.68;;;16.30;75.30;;;;;;2275246;62;30097;-77
2021/12/06 16:37:25;;;;;;;5.50;5.10;;;16.40;75.20;;;;;;2281234;62;31038;-78
2021/12/06 16:39:53;;;;;;;5.70;5.20;;;16.60;75.10;;;;;;2276402;62;30280;-76
2021/12/06 16:42:24;;;;;;;5.95;5.45;;;16.70;74.80;;;;;;2283375;62;30042;-78
2021/12/06 16:45:01;;;;;;;6.07;5.47;;;16.70;74.40;;;;;;2282966;62;30288;-77
2021/12/06 16:47:30;;;;;;;5.22;4.82;;;16.80;74.50;;;;;;2275486;62;30161;-76
2021/12/06 16:50:08;;;;;;;5.28;4.78;;;16.70;74.30;;;;;;2269687;62;30420;-77
2021/12/06 16:52:41;;;;;;;5.63;5.13;;;16.80;73.80;;;;;;2283616;62;30035;-79
2021/12/06 16:55:18;;;;;;;6.05;5.45;;;16.80;73.80;;;;;;2284608;62;30305;-87
2021/12/06 16:58:04;;;;;;;5.10;4.68;;;16.90;73.50;;;;;;2277323;62;30114;-81
2021/12/06 17:00:34;;;;;;;5.50;5.00;;;16.90;73.40;;;;;;2277903;62;30343;-77
2021/12/06 17:03:24;;;;;;;5.18;4.78;;;17.00;73.70;;;;;;2280841;62;30197;-76
2021/12/06 17:06:08;;;;;;;5.30;4.88;;;17.00;72.90;;;;;;2276497;62;30174;-78
2021/12/06 17:08:35;;;;;;;5.57;5.07;;;17.00;73.30;;;;;;2270356;62;30858;-76
2021/12/06 17:11:08;;;;;;;5.22;4.78;;;17.00;73.30;;;;;;2280255;62;30788;-81
2021/12/06 17:13:40;;;;;;;6.05;5.47;;;17.10;73.00;;;;;;2271422;62;30191;-77
2021/12/06 17:16:09;;;;;;;5.80;5.30;;;17.10;72.90;;;;;;2275848;62;30156;-78
2021/12/06 17:18:36;;;;;;;6.32;5.72;;;17.10;73.10;;;;;;2276993;62;30791;-77
2021/12/06 17:21:05;;;;;;;6.20;5.57;;;17.10;73.00;;;;;;2277174;62;31916;-77
2021/12/06 17:23:31;;;;;;;6.15;5.00;;;17.10;73.00;;;;;;2284782;62;30293;-76
2021/12/06 17:26:02;;;;;;;6.50;5.82;;;17.10;73.10;;;;;;2284508;62;29992;-77
2021/12/06 17:28:38;;;;;;;7.13;6.43;;;17.10;73.10;;;;;;2284662;62;30133;-79
2021/12/06 17:31:05;;;;;;;8.20;6.80;;;17.10;73.80;;;;;;2277578;62;30217;-77
2021/12/06 17:33:42;;;;;;;8.70;6.88;;;17.10;73.20;;;;;;2276988;62;30237;-77
2021/12/06 17:36:08;;;;;;;9.38;6.68;;;17.00;73.00;;;;;;2284776;62;30077;-76
2021/12/06 17:38:34;;;;;;;9.60;7.53;;;17.00;73.40;;;;;;2284602;62;30282;-76
2021/12/06 17:41:00;;;;;;;11.13;7.88;;;17.00;73.50;;;;;;2284310;62;30482;-76
2021/12/06 17:43:27;;;;;;;12.73;8.13;;;17.00;73.50;;;;;;2284780;62;30271;-76
2021/12/06 17:45:53;;;;;;;10.52;8.10;;;17.00;73.60;;;;;;2277245;62;30244;-75
2021/12/06 17:48:21;;;;;;;10.82;8.52;;;17.00;73.60;;;;;;2284474;62;30972;-76
2021/12/06 17:50:47;;;;;;;11.98;8.32;;;17.00;73.70;;;;;;2276482;62;30220;-76
2021/12/06 17:53:13;;;;;;;16.33;9.02;;;17.00;73.80;;;;;;2266303;62;30254;-77
2021/12/06 17:55:39;;;;;;;12.43;8.70;;;17.00;74.70;;;;;;2276261;62;30037;-78
2021/12/06 17:58:16;;;;;;;12.65;8.45;;;17.00;73.80;;;;;;2283944;62;30688;-78
2021/12/06 18:00:47;;;;;;;11.02;8.23;;;17.00;73.80;;;;;;2284375;62;30170;-79
2021/12/06 18:03:16;;;;;;;10.00;7.88;;;17.10;73.80;;;;;;2284321;62;30528;-79
2021/12/06 18:05:42;;;;;;;8.55;7.20;;;17.10;73.70;;;;;;2277315;62;30180;-78
2021/12/06 18:08:08;;;;;;;8.73;6.63;;;17.20;73.70;;;;;;2284297;62;30841;-79
2021/12/06 18:10:34;;;;;;;9.27;6.97;;;17.30;73.60;;;;;;2284354;62;30175;-77
2021/12/06 18:12:59;;;;;;;8.60;6.43;;;17.30;73.40;;;;;;2277368;62;30031;-76
2021/12/06 18:15:28;;;;;;;6.72;5.75;;;17.40;73.30;;;;;;2284103;62;30209;-77
2021/12/06 18:17:54;;;;;;;7.68;6.13;;;17.50;73.20;;;;;;2281742;62;31176;-76
2021/12/06 18:20:20;;;;;;;8.43;6.13;;;17.50;73.00;;;;;;2284057;62;30040;-79
2021/12/06 18:22:46;;;;;;;8.48;6.20;;;17.50;73.00;;;;;;2283947;62;30226;-78
2021/12/06 18:25:12;;;;;;;8.80;6.13;;;17.60;72.80;;;;;;2284592;62;30648;-77
2021/12/06 18:27:40;;;;;;;7.35;6.05;;;17.60;72.60;;;;;;2284429;62;30069;-77
2021/12/06 18:30:12;;;;;;;8.55;6.07;;;17.60;72.50;;;;;;2284001;62;30066;-77
2021/12/06 18:32:42;;;;;;;6.10;5.32;;;17.60;72.40;;;;;;2284469;62;30217;-77
2021/12/06 18:35:08;;;;;;;7.90;6.03;;;17.60;72.30;;;;;;2276867;62;29984;-76
2021/12/06 18:37:35;;;;;;;6.00;5.40;;;17.60;72.10;;;;;;2276606;62;30132;-77
2021/12/06 18:40:11;;;;;;;6.28;5.65;;;17.60;72.10;;;;;;2275947;62;30216;-76
2021/12/06 18:42:51;;;;;;;6.40;5.63;;;17.70;72.00;;;;;;2277477;62;30276;-76
2021/12/06 18:45:18;;;;;;;6.88;6.18;;;17.70;71.90;;;;;;2284091;62;30148;-76
2021/12/06 18:47:48;;;;;;;6.55;5.55;;;17.70;71.70;;;;;;2270034;62;30918;-77
2021/12/06 18:50:14;;;;;;;6.28;5.22;;;17.70;71.70;;;;;;2283794;62;32344;-76
2021/12/06 18:52:40;;;;;;;6.43;5.75;;;17.70;71.60;;;;;;2284156;62;30092;-76
2021/12/06 18:55:07;;;;;;;6.43;5.65;;;17.70;71.60;;;;;;2276777;62;30788;-76
2021/12/06 18:57:34;;;;;;;6.10;5.32;;;17.70;71.50;;;;;;2276567;62;30981;-76
2021/12/06 19:00:00;;;;;;;7.13;5.97;;;17.70;71.50;;;;;;2269963;62;30718;-72
2021/12/06 19:02:26;;;;;;;7.25;5.22;;;17.60;71.40;;;;;;2283970;62;30226;-72
2021/12/06 19:04:52;;;;;;;6.65;5.43;;;17.60;71.40;;;;;;2283293;62;30301;-72
2021/12/06 19:07:18;;;;;;;5.72;5.22;;;17.60;71.40;;;;;;2277971;62;31009;-72
2021/12/06 19:09:47;;;;;;;8.70;5.53;;;17.60;71.40;;;;;;2280720;62;30277;-72
2021/12/06 19:12:13;;;;;;;7.43;5.72;;;17.60;71.40;;;;;;2276853;62;30121;-72
2021/12/06 19:14:42;;;;;;;6.90;5.78;;;17.50;71.40;;;;;;2277114;62;30281;-72
2021/12/06 19:17:09;;;;;;;7.47;5.55;;;17.60;71.50;;;;;;2277263;62;30184;-72
2021/12/06 19:19:38;;;;;;;6.90;5.43;;;17.50;71.60;;;;;;2262777;62;30503;-72
2021/12/06 19:22:08;;;;;;;7.35;6.00;;;17.50;71.60;;;;;;2277104;62;30207;-72
2021/12/06 19:24:34;;;;;;;7.25;5.60;;;17.50;71.60;;;;;;2270069;62;30223;-72
2021/12/06 19:27:00;;;;;;;6.30;5.70;;;17.50;71.70;;;;;;2276921;62;30148;-72
2021/12/06 19:29:28;;;;;;;7.15;5.32;;;17.40;71.70;;;;;;2269882;62;30927;-73
2021/12/06 19:31:54;;;;;;;9.60;5.88;;;17.40;71.70;;;;;;2282636;62;30127;-72
2021/12/06 19:34:30;;;;;;;25.53;8.87;;;17.40;71.70;;;;;;2284955;62;30528;-73
2021/12/06 19:36:57;;;;;;;15.15;6.05;;;17.40;71.80;;;;;;2285184;62;29919;-72
2021/12/06 19:39:25;;;;;;;7.88;5.65;;;17.30;71.80;;;;;;2277415;62;30101;-73
2021/12/06 19:41:54;;;;;;;7.50;5.60;;;17.30;71.80;;;;;;2285084;62;30114;-72
2021/12/06 19:44:20;;;;;;;7.57;5.50;;;17.30;71.80;;;;;;2285344;62;30107;-73
2021/12/06 19:46:46;;;;;;;6.60;5.57;;;17.30;71.80;;;;;;2284795;62;30796;-72
2021/12/06 19:49:15;;;;;;;6.22;5.47;;;17.30;71.80;;;;;;2277176;62;30323;-72
2021/12/06 19:51:41;;;;;;;7.03;5.07;;;17.30;71.70;;;;;;2276937;62;29971;-72
2021/12/06 19:54:07;;;;;;;9.93;6.30;;;17.30;71.70;;;;;;2271534;62;30680;-71
2021/12/06 19:56:35;;;;;;;6.28;5.18;;;17.30;71.80;;;;;;2285212;62;30080;-71
2021/12/06 19:59:07;;;;;;;8.38;5.50;;;17.30;72.50;;;;;;2283492;62;30159;-72
2021/12/06 20:01:33;;;;;;;7.78;5.60;;;17.30;71.70;;;;;;2278268;62;32231;-72
2021/12/06 20:03:59;;;;;;;5.88;4.93;;;17.40;71.70;;;;;;2284772;62;30175;-71
2021/12/06 20:06:25;;;;;;;8.25;5.60;;;17.40;71.60;;;;;;2277724;62;30143;-72
2021/12/06 20:08:51;;;;;;;11.52;6.20;;;17.40;71.50;;;;;;2284850;62;30158;-71
2021/12/06 20:11:16;;;;;;;7.85;5.97;;;17.40;71.50;;;;;;2285015;62;30030;-71
2021/12/06 20:13:43;;;;;;;9.10;5.93;;;17.50;71.40;;;;;;2284887;62;30022;-72
2021/12/06 20:16:10;;;;;;;7.13;5.85;;;17.50;71.40;;;;;;2277343;62;30096;-72
2021/12/06 20:18:37;;;;;;;7.00;5.78;;;17.50;71.40;;;;;;2270826;62;30123;-71
2021/12/06 20:21:03;;;;;;;7.82;6.53;;;17.50;71.40;;;;;;2277718;62;30125;-72
2021/12/06 20:23:29;;;;;;;6.93;6.07;;;17.50;71.50;;;;;;2284606;62;30320;-71
2021/12/06 20:25:57;;;;;;;9.70;6.32;;;17.50;71.40;;;;;;2284988;62;30106;-71
2021/12/06 20:28:23;;;;;;;9.25;6.75;;;17.50;71.40;;;;;;2284731;62;30543;-72
2021/12/06 20:30:51;;;;;;;8.82;6.50;;;17.50;71.40;;;;;;2277688;62;30101;-71
2021/12/06 20:33:17;;;;;;;9.05;7.05;;;17.50;71.30;;;;;;2277653;62;30268;-72
2021/12/06 20:35:43;;;;;;;7.28;6.28;;;17.50;71.30;;;;;;2277457;62;30214;-71
2021/12/06 20:38:10;;;;;;;7.65;6.75;;;17.50;71.30;;;;;;2284979;62;30097;-72
2021/12/06 20:40:37;;;;;;;7.35;6.45;;;17.50;71.30;;;;;;2277736;62;30283;-72
2021/12/06 20:43:03;;;;;;;6.53;5.82;;;17.50;71.20;;;;;;2278952;62;30278;-72
2021/12/06 20:45:32;;;;;;;8.93;6.53;;;17.50;71.20;;;;;;2276656;62;31914;-71
2021/12/06 20:47:59;;;;;;;8.65;6.45;;;17.50;71.10;;;;;;2276554;62;30199;-71
2021/12/06 20:50:25;;;;;;;6.82;6.13;;;17.50;71.10;;;;;;2276534;62;29985;-71
2021/12/06 20:52:51;;;;;;;8.77;6.07;;;17.50;71.10;;;;;;2269376;62;30134;-72
2021/12/06 20:55:17;;;;;;;6.43;5.50;;;17.50;71.10;;;;;;2269337;62;30859;-72
2021/12/06 20:57:43;;;;;;;8.10;6.22;;;17.50;71.00;;;;;;2276358;62;30144;-71
2021/12/06 21:00:12;;;;;;;6.60;6.00;;;17.50;71.00;;;;;;2269239;62;30160;-71
2021/12/06 21:02:39;;;;;;;6.90;6.00;;;17.50;71.00;;;;;;2276756;62;30070;-71
2021/12/06 21:05:06;;;;;;;7.03;5.82;;;17.50;71.00;;;;;;2276311;62;30835;-71
2021/12/06 21:07:38;;;;;;;6.53;5.82;;;17.50;70.90;;;;;;2276460;62;30627;-72
2021/12/06 21:10:12;;;;;;;8.57;5.97;;;17.50;71.00;;;;;;2269562;62;30043;-72
2021/12/06 21:17:57;;;;;;;5.95;5.38;;;17.50;70.90;;;;;;2277960;62;30351;-72
2021/12/06 21:20:23;;;;;;;8.43;5.78;;;17.50;70.90;;;;;;2284857;62;29932;-72
2021/12/06 21:22:49;;;;;;;6.28;5.65;;;17.50;70.90;;;;;;2284708;62;30074;-74
2021/12/06 21:25:15;;;;;;;5.53;5.03;;;17.50;70.80;;;;;;2277009;62;30140;-73
2021/12/06 21:27:41;;;;;;;6.47;5.88;;;17.50;70.90;;;;;;2270112;62;30076;-73
2021/12/06 21:30:10;;;;;;;6.05;5.45;;;17.50;70.90;;;;;;2284747;62;30104;-72
2021/12/06 21:32:38;;;;;;;5.95;5.35;;;17.50;70.80;;;;;;2284391;62;30068;-73
2021/12/06 21:35:07;;;;;;;6.28;5.68;;;17.50;70.90;;;;;;2284595;62;30102;-73
2021/12/06 21:37:33;;;;;;;6.25;5.15;;;17.50;70.80;;;;;;2277275;62;30717;-72
2021/12/06 21:39:58;;;;;;;7.32;5.45;;;17.40;70.70;;;;;;2284429;62;30170;-72
2021/12/06 21:42:24;;;;;;;5.85;5.25;;;17.50;70.70;;;;;;2284501;62;29939;-72
2021/12/06 21:44:50;;;;;;;5.63;5.13;;;17.50;70.70;;;;;;2284355;62;30167;-72
2021/12/06 21:47:18;;;;;;;6.28;5.30;;;17.50;70.70;;;;;;2284275;62;30131;-72
2021/12/06 21:49:48;;;;;;;5.63;5.13;;;17.50;70.60;;;;;;2284644;62;30196;-72
2021/12/06 21:52:15;;;;;;;6.22;5.63;;;17.50;70.60;;;;;;2277369;62;30079;-73
2021/12/06 21:54:41;;;;;;;5.50;4.88;;;17.50;70.60;;;;;;2284340;62;30970;-73
2021/12/06 21:57:06;;;;;;;5.68;5.03;;;17.50;70.60;;;;;;2270157;62;30222;-72
2021/12/06 21:59:33;;;;;;;5.82;5.03;;;17.50;70.60;;;;;;2284301;62;30676;-72
2021/12/06 22:01:59;;;;;;;5.82;5.22;;;17.40;70.50;;;;;;2284322;62;30245;-72
2021/12/06 22:04:25;;;;;;;5.97;5.40;;;17.50;71.30;;;;;;2277081;62;30941;-71
2021/12/06 22:06:51;;;;;;;5.30;4.80;;;17.50;70.50;;;;;;2269891;62;30032;-71
2021/12/06 22:09:17;;;;;;;6.25;5.50;;;17.40;70.50;;;;;;2284430;62;29987;-72
2021/12/06 22:11:44;;;;;;;5.88;5.15;;;17.40;70.50;;;;;;2277167;62;30402;-72
2021/12/06 22:14:10;;;;;;;5.72;5.07;;;17.40;70.50;;;;;;2276886;62;30901;-73
2021/12/06 22:16:36;;;;;;;5.63;5.13;;;17.40;70.50;;;;;;2284207;62;31558;-72
2021/12/06 22:19:05;;;;;;;5.10;4.60;;;17.40;70.50;;;;;;2283947;62;30450;-72
2021/12/06 22:21:31;;;;;;;6.45;4.88;;;17.40;70.50;;;;;;2273783;62;30511;-72
2021/12/06 22:23:57;;;;;;;5.57;5.07;;;17.40;70.50;;;;;;2273847;62;30842;-72
2021/12/06 22:26:22;;;;;;;5.82;5.22;;;17.40;70.40;;;;;;2282981;62;31673;-73
2021/12/06 22:28:51;;;;;;;5.07;4.57;;;17.40;70.40;;;;;;2283079;62;30131;-73
2021/12/06 22:31:17;;;;;;;5.72;5.03;;;17.50;70.40;;;;;;2281619;62;30180;-73
2021/12/06 22:33:44;;;;;;;5.55;5.05;;;17.50;70.30;;;;;;2283428;62;30305;-73
2021/12/06 22:36:13;;;;;;;4.93;4.53;;;17.40;70.20;;;;;;2274645;62;30526;-72
2021/12/06 22:38:39;;;;;;;4.85;4.35;;;17.50;70.30;;;;;;2282443;62;30743;-73
2021/12/06 22:41:04;;;;;;;5.28;4.78;;;17.50;70.20;;;;;;2282559;62;30816;-74
2021/12/06 22:43:31;;;;;;;5.22;4.47;;;17.50;70.10;;;;;;2284380;62;30367;-75
2021/12/06 22:46:00;;;;;;;5.30;4.80;;;17.50;70.10;;;;;;2284580;62;30251;-74
2021/12/06 22:48:30;;;;;;;4.63;4.20;;;17.50;70.10;;;;;;2284418;62;30036;-74
2021/12/06 22:50:56;;;;;;;5.10;4.57;;;17.50;70.00;;;;;;2276744;62;30584;-73
2021/12/06 22:53:22;;;;;;;4.93;4.53;;;17.50;70.00;;;;;;2284479;62;30111;-73
2021/12/06 22:55:48;;;;;;;5.00;4.57;;;17.50;70.00;;;;;;2284439;62;30867;-73
2021/12/06 22:58:17;;;;;;;5.05;4.55;;;17.60;70.00;;;;;;2276851;62;30055;-73
2021/12/06 23:00:42;;;;;;;4.85;4.43;;;17.50;70.00;;;;;;2276298;62;30148;-72
2021/12/06 23:03:08;;;;;;;7.85;5.85;;;17.50;70.00;;;;;;2284130;62;30707;-72
2021/12/06 23:05:34;;;;;;;7.00;5.40;;;17.50;70.00;;;;;;2276939;62;30041;-72
2021/12/06 23:08:01;;;;;;;6.35;5.50;;;17.50;70.00;;;;;;2271638;62;30764;-71
2021/12/06 23:10:27;;;;;;;6.03;5.28;;;17.50;70.00;;;;;;2276015;62;30115;-72
2021/12/06 23:12:55;;;;;;;5.53;5.03;;;17.50;70.00;;;;;;2268672;62;30187;-71
2021/12/06 23:15:25;;;;;;;5.53;4.90;;;17.50;70.00;;;;;;2269128;62;30534;-72
2021/12/06 23:17:51;;;;;;;5.10;4.60;;;17.50;70.00;;;;;;2282637;62;30161;-72
2021/12/06 23:20:17;;;;;;;5.78;4.80;;;17.50;70.00;;;;;;2276072;62;30282;-73
2021/12/06 23:22:42;;;;;;;7.32;5.00;;;17.50;70.00;;;;;;2276111;62;30115;-73
2021/12/06 23:25:09;;;;;;;6.28;4.65;;;17.50;69.90;;;;;;2278005;62;30943;-75
2021/12/06 23:27:38;;;;;;;6.40;4.65;;;17.50;70.00;;;;;;2284406;62;30261;-75
2021/12/06 23:30:07;;;;;;;6.00;4.25;;;17.50;69.90;;;;;;2270284;62;30118;-78
2021/12/06 23:32:36;;;;;;;4.93;4.25;;;17.50;69.90;;;;;;2277689;62;32073;-71
